sensor_id;sensor_type;location;lat;lon;timestamp;pressure;altitude;pressure_sealevel;temperature;humidity
46408;BME280;32110;45.724;21.276;2023-04-21T00:12:45;100209.13;;;9.16;nan
46408;BME280;32110;45.724;21.276;2023-04-21T03:24:23;100184.53;;;6.63;nan
46408;BME280;32110;45.724;21.276;2023-04-21T06:09:20;100261.41;;;9.73;nan
46408;BME280;32110;45.724;21.276;2023-04-21T06:19:01;100267.03;;;10.18;nan
46408;BME280;32110;45.724;21.276;2023-04-21T06:21:26;100281.63;;;10.33;nan
46408;BME280;32110;45.724;21.276;2023-04-21T06:23:52;100260.22;;;10.29;nan
46408;BME280;32110;45.724;21.276;2023-04-21T06:26:17;100275.34;;;10.46;nan
46408;BME280;32110;45.724;21.276;2023-04-21T06:28:43;100283.03;;;10.59;nan
46408;BME280;32110;45.724;21.276;2023-04-21T06:31:08;100271.16;;;10.68;nan
46408;BME280;32110;45.724;21.276;2023-04-21T06:33:34;100275.72;;;10.84;nan
46408;BME280;32110;45.724;21.276;2023-04-21T06:35:59;100277.44;;;10.91;nan
46408;BME280;32110;45.724;21.276;2023-04-21T06:38:25;100276.53;;;10.97;nan
46408;BME280;32110;45.724;21.276;2023-04-21T06:40:50;100275.59;;;11.03;nan
46408;BME280;32110;45.724;21.276;2023-04-21T06:43:16;100268.16;;;11.12;nan
46408;BME280;32110;45.724;21.276;2023-04-21T06:45:41;100274.53;;;11.27;nan
46408;BME280;32110;45.724;21.276;2023-04-21T06:48:06;100271.75;;;11.34;nan
46408;BME280;32110;45.724;21.276;2023-04-21T06:50:32;100285.72;;;11.46;nan
46408;BME280;32110;45.724;21.276;2023-04-21T08:56:51;100289.09;;;15.76;nan
46408;BME280;32110;45.724;21.276;2023-04-21T08:59:16;100281.09;;;15.70;nan
46408;BME280;32110;45.724;21.276;2023-04-21T09:04:56;100276.06;;;15.74;nan
46408;BME280;32110;45.724;21.276;2023-04-21T09:07:31;100288.31;;;15.85;nan
46408;BME280;32110;45.724;21.276;2023-04-21T09:09:57;100274.25;;;15.90;nan
46408;BME280;32110;45.724;21.276;2023-04-21T09:12:24;100274.25;;;15.95;nan
46408;BME280;32110;45.724;21.276;2023-04-21T09:14:50;100282.78;;;16.02;nan
46408;BME280;32110;45.724;21.276;2023-04-21T09:17:16;100286.75;;;16.00;nan
46408;BME280;32110;45.724;21.276;2023-04-21T09:19:42;100270.28;;;15.92;nan
46408;BME280;32110;45.724;21.276;2023-04-21T09:22:08;100262.03;;;15.94;nan
46408;BME280;32110;45.724;21.276;2023-04-21T09:24:33;100284.59;;;16.02;nan
46408;BME280;32110;45.724;21.276;2023-04-21T09:27:02;100287.00;;;16.08;nan
46408;BME280;32110;45.724;21.276;2023-04-21T09:29:28;100268.69;;;16.02;nan
46408;BME280;32110;45.724;21.276;2023-04-21T09:31:53;100278.00;;;16.04;nan
46408;BME280;32110;45.724;21.276;2023-04-21T09:56:20;100284.06;;;15.84;nan
46408;BME280;32110;45.724;21.276;2023-04-21T10:18:28;100241.34;;;16.27;nan
46408;BME280;32110;45.724;21.276;2023-04-21T11:16:16;100260.56;;;17.25;nan
46408;BME280;32110;45.724;21.276;2023-04-21T11:53:13;100200.63;;;17.82;nan
46408;BME280;32110;45.724;21.276;2023-04-21T12:07:48;100197.69;;;18.18;nan
46408;BME280;32110;45.724;21.276;2023-04-21T12:15:09;100273.38;;;18.46;nan
46408;BME280;32110;45.724;21.276;2023-04-21T12:34:38;100137.91;;;18.96;nan
46408;BME280;32110;45.724;21.276;2023-04-21T12:37:03;100157.16;;;18.93;nan
46408;BME280;32110;45.724;21.276;2023-04-21T12:44:21;100129.28;;;19.23;nan
46408;BME280;32110;45.724;21.276;2023-04-21T12:49:13;100117.84;;;19.37;nan
46408;BME280;32110;45.724;21.276;2023-04-21T12:58:56;100125.66;;;19.52;nan
46408;BME280;32110;45.724;21.276;2023-04-21T13:01:23;100181.94;;;19.55;nan
46408;BME280;32110;45.724;21.276;2023-04-21T13:03:48;100165.72;;;19.52;nan
46408;BME280;32110;45.724;21.276;2023-04-21T13:08:39;100111.66;;;19.41;nan
46408;BME280;32110;45.724;21.276;2023-04-21T13:11:04;100076.72;;;19.38;nan
46408;BME280;32110;45.724;21.276;2023-04-21T13:15:55;100107.09;;;19.42;nan
46408;BME280;32110;45.724;21.276;2023-04-21T13:18:21;100128.41;;;19.28;nan
46408;BME280;32110;45.724;21.276;2023-04-21T13:20:46;100066.00;;;19.24;nan
46408;BME280;32110;45.724;21.276;2023-04-21T13:23:12;100117.50;;;19.05;nan
46408;BME280;32110;45.724;21.276;2023-04-21T13:25:39;100182.50;;;19.15;nan
46408;BME280;32110;45.724;21.276;2023-04-21T13:28:05;100080.88;;;19.11;nan
46408;BME280;32110;45.724;21.276;2023-04-21T13:30:32;100115.94;;;19.04;nan
46408;BME280;32110;45.724;21.276;2023-04-21T13:32:57;100135.25;;;18.96;nan
46408;BME280;32110;45.724;21.276;2023-04-21T13:35:23;100101.91;;;18.94;nan
46408;BME280;32110;45.724;21.276;2023-04-21T13:37:48;100124.28;;;18.98;nan
46408;BME280;32110;45.724;21.276;2023-04-21T13:40:14;100109.00;;;19.03;nan
46408;BME280;32110;45.724;21.276;2023-04-21T13:42:39;100102.94;;;19.17;nan
46408;BME280;32110;45.724;21.276;2023-04-21T13:45:05;100105.09;;;19.33;nan
46408;BME280;32110;45.724;21.276;2023-04-21T13:47:32;100068.31;;;19.30;nan
46408;BME280;32110;45.724;21.276;2023-04-21T13:49:58;100059.03;;;19.42;nan
46408;BME280;32110;45.724;21.276;2023-04-21T13:52:24;100123.19;;;19.55;nan
46408;BME280;32110;45.724;21.276;2023-04-21T13:54:51;100094.81;;;19.60;nan
46408;BME280;32110;45.724;21.276;2023-04-21T13:59:42;100109.94;;;19.83;nan
46408;BME280;32110;45.724;21.276;2023-04-21T14:02:07;100083.25;;;19.64;nan
46408;BME280;32110;45.724;21.276;2023-04-21T14:04:32;100100.56;;;19.67;nan
46408;BME280;32110;45.724;21.276;2023-04-21T14:09:24;100099.34;;;19.59;nan
46408;BME280;32110;45.724;21.276;2023-04-21T14:11:49;100090.41;;;19.69;nan
46408;BME280;32110;45.724;21.276;2023-04-21T14:14:15;100087.38;;;19.75;nan
46408;BME280;32110;45.724;21.276;2023-04-21T14:16:40;100099.94;;;19.89;nan
46408;BME280;32110;45.724;21.276;2023-04-21T14:19:06;100074.13;;;19.98;nan
46408;BME280;32110;45.724;21.276;2023-04-21T14:21:31;100198.72;;;19.94;nan
46408;BME280;32110;45.724;21.276;2023-04-21T14:23:57;100090.75;;;19.95;nan
46408;BME280;32110;45.724;21.276;2023-04-21T14:26:22;100074.41;;;19.96;nan
46408;BME280;32110;45.724;21.276;2023-04-21T14:28:48;100045.09;;;19.77;nan
46408;BME280;32110;45.724;21.276;2023-04-21T14:31:14;100082.66;;;19.67;nan
46408;BME280;32110;45.724;21.276;2023-04-21T14:36:05;100078.41;;;19.66;nan
46408;BME280;32110;45.724;21.276;2023-04-21T14:40:57;100055.28;;;19.43;nan
46408;BME280;32110;45.724;21.276;2023-04-21T14:43:22;100078.72;;;19.46;nan
46408;BME280;32110;45.724;21.276;2023-04-21T14:45:48;100060.03;;;19.46;nan
46408;BME280;32110;45.724;21.276;2023-04-21T14:48:13;100064.97;;;19.39;nan
46408;BME280;32110;45.724;21.276;2023-04-21T14:53:04;100049.28;;;19.18;nan
46408;BME280;32110;45.724;21.276;2023-04-21T14:55:31;100115.56;;;19.11;nan
46408;BME280;32110;45.724;21.276;2023-04-21T14:57:56;100117.44;;;19.10;nan
46408;BME280;32110;45.724;21.276;2023-04-21T15:00:21;100106.13;;;19.00;nan
46408;BME280;32110;45.724;21.276;2023-04-21T15:02:48;100108.56;;;18.96;nan
46408;BME280;32110;45.724;21.276;2023-04-21T15:05:13;100113.41;;;18.94;nan
46408;BME280;32110;45.724;21.276;2023-04-21T15:07:39;100110.16;;;18.73;nan
46408;BME280;32110;45.724;21.276;2023-04-21T15:10:06;100113.19;;;18.66;nan
46408;BME280;32110;45.724;21.276;2023-04-21T15:12:32;100118.13;;;18.78;nan
46408;BME280;32110;45.724;21.276;2023-04-21T15:14:57;100100.03;;;18.75;nan
46408;BME280;32110;45.724;21.276;2023-04-21T15:17:23;100114.28;;;18.65;nan
46408;BME280;32110;45.724;21.276;2023-04-21T15:19:48;100108.19;;;18.60;nan
46408;BME280;32110;45.724;21.276;2023-04-21T15:22:14;100112.06;;;18.48;nan
46408;BME280;32110;45.724;21.276;2023-04-21T15:24:39;100105.88;;;18.53;nan
46408;BME280;32110;45.724;21.276;2023-04-21T15:27:05;100113.41;;;18.46;nan
46408;BME280;32110;45.724;21.276;2023-04-21T15:29:30;100100.91;;;18.46;nan
46408;BME280;32110;45.724;21.276;2023-04-21T15:31:56;100099.34;;;18.40;nan
46408;BME280;32110;45.724;21.276;2023-04-21T15:34:21;100111.78;;;18.50;nan
46408;BME280;32110;45.724;21.276;2023-04-21T15:36:46;100104.19;;;18.38;nan
46408;BME280;32110;45.724;21.276;2023-04-21T15:39:12;100109.88;;;18.32;nan
46408;BME280;32110;45.724;21.276;2023-04-21T15:41:38;100102.66;;;18.32;nan
46408;BME280;32110;45.724;21.276;2023-04-21T15:44:04;100112.16;;;18.38;nan
46408;BME280;32110;45.724;21.276;2023-04-21T15:46:29;100100.09;;;18.22;nan
46408;BME280;32110;45.724;21.276;2023-04-21T15:48:55;100092.38;;;18.20;nan
46408;BME280;32110;45.724;21.276;2023-04-21T15:51:20;100105.03;;;18.34;nan
46408;BME280;32110;45.724;21.276;2023-04-21T15:53:47;100112.16;;;18.38;nan
46408;BME280;32110;45.724;21.276;2023-04-21T15:56:15;100092.06;;;18.27;nan
46408;BME280;32110;45.724;21.276;2023-04-21T15:58:41;100091.59;;;18.20;nan
46408;BME280;32110;45.724;21.276;2023-04-21T16:01:06;100100.06;;;18.27;nan
46408;BME280;32110;45.724;21.276;2023-04-21T16:03:32;100094.47;;;18.23;nan
46408;BME280;32110;45.724;21.276;2023-04-21T16:05:58;100086.75;;;18.22;nan
46408;BME280;32110;45.724;21.276;2023-04-21T16:08:23;100104.88;;;18.25;nan
46408;BME280;32110;45.724;21.276;2023-04-21T16:10:49;100071.50;;;18.03;nan
46408;BME280;32110;45.724;21.276;2023-04-21T16:13:15;100096.13;;;18.19;nan
46408;BME280;32110;45.724;21.276;2023-04-21T16:15:40;100106.84;;;18.14;nan
46408;BME280;32110;45.724;21.276;2023-04-21T16:18:05;100107.63;;;18.15;nan
46408;BME280;32110;45.724;21.276;2023-04-21T16:20:32;100105.81;;;18.10;nan
46408;BME280;32110;45.724;21.276;2023-04-21T16:22:57;100097.84;;;18.05;nan
46408;BME280;32110;45.724;21.276;2023-04-21T16:25:23;100106.44;;;18.02;nan
46408;BME280;32110;45.724;21.276;2023-04-21T16:27:48;100098.75;;;17.95;nan
46408;BME280;32110;45.724;21.276;2023-04-21T16:30:14;100111.53;;;17.98;nan
46408;BME280;32110;45.724;21.276;2023-04-21T16:32:39;100098.03;;;17.90;nan
46408;BME280;32110;45.724;21.276;2023-04-21T16:35:05;100071.03;;;17.67;nan
46408;BME280;32110;45.724;21.276;2023-04-21T16:37:34;100103.63;;;17.88;nan
46408;BME280;32110;45.724;21.276;2023-04-21T16:40:05;100104.97;;;17.85;nan
46408;BME280;32110;45.724;21.276;2023-04-21T16:42:32;100099.72;;;17.75;nan
46408;BME280;32110;45.724;21.276;2023-04-21T16:44:58;100094.13;;;17.72;nan
46408;BME280;32110;45.724;21.276;2023-04-21T16:47:27;100109.00;;;17.78;nan
46408;BME280;32110;45.724;21.276;2023-04-21T16:49:52;100092.59;;;17.65;nan
46408;BME280;32110;45.724;21.276;2023-04-21T16:52:18;100092.09;;;17.63;nan
46408;BME280;32110;45.724;21.276;2023-04-21T16:54:43;100114.38;;;17.73;nan
46408;BME280;32110;45.724;21.276;2023-04-21T16:57:08;100099.09;;;17.54;nan
46408;BME280;32110;45.724;21.276;2023-04-21T16:59:34;100110.22;;;17.61;nan
46408;BME280;32110;45.724;21.276;2023-04-21T17:01:59;100106.81;;;17.56;nan
46408;BME280;32110;45.724;21.276;2023-04-21T17:04:25;100110.81;;;17.53;nan
46408;BME280;32110;45.724;21.276;2023-04-21T17:06:50;100117.75;;;17.49;nan
46408;BME280;32110;45.724;21.276;2023-04-21T17:09:15;100107.72;;;17.41;nan
46408;BME280;32110;45.724;21.276;2023-04-21T17:11:41;100122.06;;;17.40;nan
46408;BME280;32110;45.724;21.276;2023-04-21T17:14:06;100111.03;;;17.22;nan
46408;BME280;32110;45.724;21.276;2023-04-21T17:16:32;100109.72;;;17.20;nan
46408;BME280;32110;45.724;21.276;2023-04-21T17:18:57;100101.78;;;17.15;nan
46408;BME280;32110;45.724;21.276;2023-04-21T17:21:23;100111.31;;;17.16;nan
46408;BME280;32110;45.724;21.276;2023-04-21T17:23:48;100118.28;;;17.07;nan
46408;BME280;32110;45.724;21.276;2023-04-21T17:26:14;100118.84;;;17.04;nan
46408;BME280;32110;45.724;21.276;2023-04-21T17:28:39;100104.81;;;16.93;nan
46408;BME280;32110;45.724;21.276;2023-04-21T17:31:05;100127.38;;;17.00;nan
46408;BME280;32110;45.724;21.276;2023-04-21T17:33:30;100110.94;;;16.93;nan
46408;BME280;32110;45.724;21.276;2023-04-21T17:35:56;100121.00;;;16.96;nan
46408;BME280;32110;45.724;21.276;2023-04-21T17:38:21;100079.91;;;16.63;nan
46408;BME280;32110;45.724;21.276;2023-04-21T17:40:47;100119.75;;;16.84;nan
46408;BME280;32110;45.724;21.276;2023-04-21T17:43:12;100133.09;;;16.78;nan
46408;BME280;32110;45.724;21.276;2023-04-21T17:45:38;100125.91;;;16.79;nan
46408;BME280;32110;45.724;21.276;2023-04-21T17:48:04;100128.78;;;16.77;nan
46408;BME280;32110;45.724;21.276;2023-04-21T17:50:30;100124.03;;;16.79;nan
46408;BME280;32110;45.724;21.276;2023-04-21T17:52:56;100096.97;;;16.57;nan
46408;BME280;32110;45.724;21.276;2023-04-21T17:55:21;100120.56;;;16.74;nan
46408;BME280;32110;45.724;21.276;2023-04-21T17:57:47;100113.66;;;16.68;nan
46408;BME280;32110;45.724;21.276;2023-04-21T18:00:13;100141.06;;;16.78;nan
46408;BME280;32110;45.724;21.276;2023-04-21T18:02:40;100125.09;;;16.68;nan
46408;BME280;32110;45.724;21.276;2023-04-21T18:05:06;100138.91;;;16.70;nan
46408;BME280;32110;45.724;21.276;2023-04-21T18:07:32;100132.25;;;16.73;nan
46408;BME280;32110;45.724;21.276;2023-04-21T18:09:57;100145.03;;;16.71;nan
46408;BME280;32110;45.724;21.276;2023-04-21T18:12:23;100138.66;;;16.72;nan
46408;BME280;32110;45.724;21.276;2023-04-21T18:14:48;100121.41;;;16.59;nan
46408;BME280;32110;45.724;21.276;2023-04-21T18:17:14;100142.38;;;16.66;nan
46408;BME280;32110;45.724;21.276;2023-04-21T18:19:40;100132.59;;;16.56;nan
46408;BME280;32110;45.724;21.276;2023-04-21T18:22:05;100126.22;;;16.52;nan
46408;BME280;32110;45.724;21.276;2023-04-21T18:24:31;100128.09;;;16.46;nan
46408;BME280;32110;45.724;21.276;2023-04-21T18:26:56;100144.03;;;16.51;nan
46408;BME280;32110;45.724;21.276;2023-04-21T18:29:22;100131.00;;;16.45;nan
46408;BME280;32110;45.724;21.276;2023-04-21T18:31:47;100148.28;;;16.42;nan
46408;BME280;32110;45.724;21.276;2023-04-21T18:34:13;100107.19;;;16.14;nan
46408;BME280;32110;45.724;21.276;2023-04-21T18:36:39;100143.81;;;16.32;nan
46408;BME280;32110;45.724;21.276;2023-04-21T18:39:08;100110.91;;;16.08;nan
46408;BME280;32110;45.724;21.276;2023-04-21T18:41:38;100154.72;;;16.31;nan
46408;BME280;32110;45.724;21.276;2023-04-21T18:44:04;100147.56;;;16.21;nan
46408;BME280;32110;45.724;21.276;2023-04-21T18:46:34;100136.41;;;16.09;nan
46408;BME280;32110;45.724;21.276;2023-04-21T18:48:59;100155.78;;;16.20;nan
46408;BME280;32110;45.724;21.276;2023-04-21T18:51:25;100141.72;;;16.09;nan
46408;BME280;32110;45.724;21.276;2023-04-21T18:53:51;100143.34;;;16.05;nan
46408;BME280;32110;45.724;21.276;2023-04-21T18:56:19;100145.69;;;16.06;nan
46408;BME280;32110;45.724;21.276;2023-04-21T18:58:45;100155.53;;;16.06;nan
46408;BME280;32110;45.724;21.276;2023-04-21T19:01:10;100142.28;;;15.95;nan
46408;BME280;32110;45.724;21.276;2023-04-21T19:03:36;100134.56;;;15.89;nan
46408;BME280;32110;45.724;21.276;2023-04-21T19:06:01;100133.50;;;15.85;nan
46408;BME280;32110;45.724;21.276;2023-04-21T19:08:27;100144.94;;;15.85;nan
46408;BME280;32110;45.724;21.276;2023-04-21T19:10:52;100134.28;;;15.80;nan
46408;BME280;32110;45.724;21.276;2023-04-21T19:13:17;100144.41;;;15.83;nan
46408;BME280;32110;45.724;21.276;2023-04-21T19:15:43;100140.44;;;15.81;nan
46408;BME280;32110;45.724;21.276;2023-04-21T19:18:12;100146.25;;;15.72;nan
46408;BME280;32110;45.724;21.276;2023-04-21T19:20:37;100146.25;;;15.72;nan
46408;BME280;32110;45.724;21.276;2023-04-21T19:23:05;100142.25;;;15.70;nan
46408;BME280;32110;45.724;21.276;2023-04-21T19:25:30;100095.50;;;15.38;nan
46408;BME280;32110;45.724;21.276;2023-04-21T19:27:57;100126.03;;;15.51;nan
46408;BME280;32110;45.724;21.276;2023-04-21T19:30:23;100140.91;;;15.57;nan
46408;BME280;32110;45.724;21.276;2023-04-21T19:32:48;100145.94;;;15.48;nan
46408;BME280;32110;45.724;21.276;2023-04-21T19:35:13;100131.31;;;15.36;nan
46408;BME280;32110;45.724;21.276;2023-04-21T19:37:39;100132.66;;;15.38;nan
46408;BME280;32110;45.724;21.276;2023-04-21T19:40:05;100140.88;;;15.42;nan
46408;BME280;32110;45.724;21.276;2023-04-21T19:42:31;100134.22;;;15.29;nan
46408;BME280;32110;45.724;21.276;2023-04-21T19:44:56;100140.31;;;15.24;nan
46408;BME280;32110;45.724;21.276;2023-04-21T19:47:21;100145.09;;;15.27;nan
46408;BME280;32110;45.724;21.276;2023-04-21T19:49:47;100127.34;;;15.23;nan
46408;BME280;32110;45.724;21.276;2023-04-21T19:52:12;100137.94;;;15.23;nan
46408;BME280;32110;45.724;21.276;2023-04-21T19:54:38;100136.06;;;15.18;nan
46408;BME280;32110;45.724;21.276;2023-04-21T19:57:03;100127.56;;;15.16;nan
46408;BME280;32110;45.724;21.276;2023-04-21T19:59:28;100098.34;;;14.91;nan
46408;BME280;32110;45.724;21.276;2023-04-21T20:01:54;100140.31;;;15.19;nan
46408;BME280;32110;45.724;21.276;2023-04-21T20:04:19;100142.72;;;15.21;nan
46408;BME280;32110;45.724;21.276;2023-04-21T20:06:45;100131.81;;;15.12;nan
46408;BME280;32110;45.724;21.276;2023-04-21T20:09:10;100141.38;;;15.18;nan
46408;BME280;32110;45.724;21.276;2023-04-21T20:11:36;100133.13;;;15.15;nan
46408;BME280;32110;45.724;21.276;2023-04-21T20:14:01;100126.50;;;15.12;nan
46408;BME280;32110;45.724;21.276;2023-04-21T20:16:27;100133.66;;;15.12;nan
46408;BME280;32110;45.724;21.276;2023-04-21T20:18:53;100131.25;;;15.10;nan
46408;BME280;32110;45.724;21.276;2023-04-21T20:21:20;100139.50;;;15.14;nan
46408;BME280;32110;45.724;21.276;2023-04-21T20:23:46;100137.63;;;15.09;nan
46408;BME280;32110;45.724;21.276;2023-04-21T20:26:11;100142.16;;;15.08;nan
46408;BME280;32110;45.724;21.276;2023-04-21T20:28:39;100141.34;;;15.08;nan
46408;BME280;32110;45.724;21.276;2023-04-21T20:31:04;100135.22;;;15.02;nan
46408;BME280;32110;45.724;21.276;2023-04-21T20:33:30;100146.94;;;15.12;nan
46408;BME280;32110;45.724;21.276;2023-04-21T20:35:55;100136.53;;;15.00;nan
46408;BME280;32110;45.724;21.276;2023-04-21T20:38:21;100143.19;;;15.02;nan
46408;BME280;32110;45.724;21.276;2023-04-21T20:40:50;100155.66;;;15.07;nan
46408;BME280;32110;45.724;21.276;2023-04-21T20:43:18;100148.19;;;14.99;nan
46408;BME280;32110;45.724;21.276;2023-04-21T20:45:43;100155.63;;;14.97;nan
46408;BME280;32110;45.724;21.276;2023-04-21T20:48:09;100120.81;;;14.73;nan
46408;BME280;32110;45.724;21.276;2023-04-21T20:50:34;100121.84;;;14.66;nan
46408;BME280;32110;45.724;21.276;2023-04-21T20:53:00;100137.78;;;14.77;nan
46408;BME280;32110;45.724;21.276;2023-04-21T20:55:26;100156.34;;;14.77;nan
46408;BME280;32110;45.724;21.276;2023-04-21T20:57:51;100128.69;;;14.57;nan
46408;BME280;32110;45.724;21.276;2023-04-21T21:00:17;100147.78;;;14.59;nan
46408;BME280;32110;45.724;21.276;2023-04-21T21:02:42;100149.66;;;14.64;nan
46408;BME280;32110;45.724;21.276;2023-04-21T21:05:08;100116.06;;;14.27;nan
46408;BME280;32110;45.724;21.276;2023-04-21T21:07:33;100152.44;;;14.47;nan
46408;BME280;32110;45.724;21.276;2023-04-21T21:09:59;100151.97;;;14.55;nan
46408;BME280;32110;45.724;21.276;2023-04-21T21:12:24;100142.38;;;14.44;nan
46408;BME280;32110;45.724;21.276;2023-04-21T21:14:50;100154.28;;;14.41;nan
46408;BME280;32110;45.724;21.276;2023-04-21T21:17:15;100154.22;;;14.36;nan
46408;BME280;32110;45.724;21.276;2023-04-21T21:19:41;100158.75;;;14.41;nan
46408;BME280;32110;45.724;21.276;2023-04-21T21:22:07;100126.00;;;14.10;nan
46408;BME280;32110;45.724;21.276;2023-04-21T21:24:32;100160.25;;;14.26;nan
46408;BME280;32110;45.724;21.276;2023-04-21T21:26:58;100152.00;;;14.18;nan
46408;BME280;32110;45.724;21.276;2023-04-21T21:29:23;100159.94;;;14.13;nan
46408;BME280;32110;45.724;21.276;2023-04-21T21:31:49;100159.06;;;14.07;nan
46408;BME280;32110;45.724;21.276;2023-04-21T21:34:14;100160.09;;;14.01;nan
46408;BME280;32110;45.724;21.276;2023-04-21T21:36:40;100150.75;;;13.93;nan
46408;BME280;32110;45.724;21.276;2023-04-21T21:39:05;100163.00;;;13.99;nan
46408;BME280;32110;45.724;21.276;2023-04-21T21:41:31;100151.03;;;13.92;nan
46408;BME280;32110;45.724;21.276;2023-04-21T21:43:56;100154.13;;;13.83;nan
46408;BME280;32110;45.724;21.276;2023-04-21T21:46:22;100162.31;;;13.82;nan
46408;BME280;32110;45.724;21.276;2023-04-21T21:48:48;100164.94;;;13.77;nan
46408;BME280;32110;45.724;21.276;2023-04-21T21:51:13;100153.81;;;13.75;nan
46408;BME280;32110;45.724;21.276;2023-04-21T21:53:39;100153.00;;;13.74;nan
46408;BME280;32110;45.724;21.276;2023-04-21T21:56:04;100168.38;;;13.77;nan
46408;BME280;32110;45.724;21.276;2023-04-21T21:58:30;100160.84;;;13.64;nan
46408;BME280;32110;45.724;21.276;2023-04-21T22:00:56;100157.03;;;13.55;nan
46408;BME280;32110;45.724;21.276;2023-04-21T22:03:22;100157.03;;;13.55;nan
46408;BME280;32110;45.724;21.276;2023-04-21T22:05:47;100152.22;;;13.47;nan
46408;BME280;32110;45.724;21.276;2023-04-21T22:08:12;100166.78;;;13.49;nan
46408;BME280;32110;45.724;21.276;2023-04-21T22:10:40;100159.53;;;13.39;nan
46408;BME280;32110;45.724;21.276;2023-04-21T22:13:05;100165.06;;;13.38;nan
46408;BME280;32110;45.724;21.276;2023-04-21T22:15:30;100164.53;;;13.36;nan
46408;BME280;32110;45.724;21.276;2023-04-21T22:17:56;100159.44;;;13.29;nan
46408;BME280;32110;45.724;21.276;2023-04-21T22:20:21;100171.22;;;13.22;nan
46408;BME280;32110;45.724;21.276;2023-04-21T22:22:47;100163.13;;;13.06;nan
46408;BME280;32110;45.724;21.276;2023-04-21T22:25:12;100168.78;;;13.15;nan
46408;BME280;32110;45.724;21.276;2023-04-21T22:27:38;100174.53;;;13.12;nan
46408;BME280;32110;45.724;21.276;2023-04-21T22:30:04;100176.91;;;13.08;nan
46408;BME280;32110;45.724;21.276;2023-04-21T22:32:29;100170.81;;;13.08;nan
46408;BME280;32110;45.724;21.276;2023-04-21T22:34:57;100169.75;;;13.09;nan
46408;BME280;32110;45.724;21.276;2023-04-21T22:37:23;100162.28;;;13.01;nan
46408;BME280;32110;45.724;21.276;2023-04-21T22:39:48;100172.34;;;13.04;nan
46408;BME280;32110;45.724;21.276;2023-04-21T22:42:14;100174.50;;;13.07;nan
46408;BME280;32110;45.724;21.276;2023-04-21T22:44:39;100169.69;;;13.04;nan
46408;BME280;32110;45.724;21.276;2023-04-21T22:47:05;100162.75;;;12.97;nan
46408;BME280;32110;45.724;21.276;2023-04-21T22:49:30;100166.63;;;12.90;nan
46408;BME280;32110;45.724;21.276;2023-04-21T22:51:56;100176.16;;;12.91;nan
46408;BME280;32110;45.724;21.276;2023-04-21T22:54:21;100171.63;;;12.86;nan
46408;BME280;32110;45.724;21.276;2023-04-21T22:56:47;100169.53;;;12.88;nan
46408;BME280;32110;45.724;21.276;2023-04-21T22:59:12;100131.16;;;12.64;nan
46408;BME280;32110;45.724;21.276;2023-04-21T23:01:37;100166.56;;;12.85;nan
46408;BME280;32110;45.724;21.276;2023-04-21T23:04:03;100172.69;;;12.90;nan
46408;BME280;32110;45.724;21.276;2023-04-21T23:06:28;100166.56;;;12.85;nan
46408;BME280;32110;45.724;21.276;2023-04-21T23:08:53;100156.66;;;12.75;nan
46408;BME280;32110;45.724;21.276;2023-04-21T23:11:19;100163.88;;;12.80;nan
46408;BME280;32110;45.724;21.276;2023-04-21T23:13:44;100161.38;;;12.73;nan
46408;BME280;32110;45.724;21.276;2023-04-21T23:16:10;100150.06;;;12.55;nan
46408;BME280;32110;45.724;21.276;2023-04-21T23:18:35;100159.03;;;12.54;nan
46408;BME280;32110;45.724;21.276;2023-04-21T23:21:00;100153.38;;;12.46;nan
46408;BME280;32110;45.724;21.276;2023-04-21T23:23:26;100116.13;;;12.08;nan
46408;BME280;32110;45.724;21.276;2023-04-21T23:25:51;100169.94;;;12.41;nan
46408;BME280;32110;45.724;21.276;2023-04-21T23:28:17;100167.41;;;12.29;nan
46408;BME280;32110;45.724;21.276;2023-04-21T23:30:44;100175.41;;;12.34;nan
46408;BME280;32110;45.724;21.276;2023-04-21T23:33:10;100178.38;;;12.38;nan
46408;BME280;32110;45.724;21.276;2023-04-21T23:35:35;100166.13;;;12.32;nan
46408;BME280;32110;45.724;21.276;2023-04-21T23:38:01;100171.16;;;12.33;nan
46408;BME280;32110;45.724;21.276;2023-04-21T23:40:26;100163.81;;;12.36;nan
46408;BME280;32110;45.724;21.276;2023-04-21T23:42:52;100178.81;;;12.35;nan
46408;BME280;32110;45.724;21.276;2023-04-21T23:45:17;100161.56;;;12.27;nan
46408;BME280;32110;45.724;21.276;2023-04-21T23:47:42;100167.41;;;12.29;nan
46408;BME280;32110;45.724;21.276;2023-04-21T23:50:09;100179.00;;;12.28;nan
46408;BME280;32110;45.724;21.276;2023-04-21T23:52:35;100171.81;;;12.24;nan
46408;BME280;32110;45.724;21.276;2023-04-21T23:55:01;100167.50;;;12.18;nan
46408;BME280;32110;45.724;21.276;2023-04-21T23:57:26;100177.81;;;12.19;nan
46408;BME280;32110;45.724;21.276;2023-04-21T23:59:51;100169.56;;;12.16;nan
